createdAt,value
2023-03-21T00:01:52.028Z,20.60
2023-03-21T00:05:57.324Z,24.90
2023-03-21T00:09:59.049Z,22.40
2023-03-21T00:14:05.555Z,23.10
2023-03-21T00:18:02.464Z,22.40
2023-03-21T00:22:08.058Z,23.40
2023-03-21T00:26:05.255Z,19.50
2023-03-21T00:30:06.175Z,20.10
2023-03-21T00:34:03.986Z,20.30
2023-03-21T00:38:05.060Z,22.10
2023-03-21T00:42:00.831Z,22.60
2023-03-21T00:46:05.769Z,23.00
2023-03-21T00:50:02.400Z,21.50
2023-03-21T00:54:03.862Z,19.60
2023-03-21T00:58:02.502Z,21.20
2023-03-21T01:02:03.380Z,20.40
2023-03-21T01:05:58.082Z,22.30
2023-03-21T01:09:56.650Z,20.10
2023-03-21T01:14:07.119Z,17.50
2023-03-21T01:18:17.197Z,19.80
2023-03-21T01:22:14.550Z,15.80
2023-03-21T01:26:13.379Z,18.70
2023-03-21T01:30:21.503Z,19.00
2023-03-21T01:34:20.298Z,22.20
2023-03-21T01:38:31.406Z,20.40
2023-03-21T01:42:28.167Z,15.10
2023-03-21T01:46:32.230Z,16.30
2023-03-21T01:50:44.586Z,16.70
2023-03-21T01:54:54.356Z,20.70
2023-03-21T01:58:51.214Z,18.70
2023-03-21T02:03:18.933Z,20.20
2023-03-21T02:07:28.150Z,20.30
2023-03-21T02:11:36.971Z,16.90
2023-03-21T02:15:36.884Z,20.10
2023-03-21T02:19:52.901Z,23.40
2023-03-21T02:23:52.328Z,20.60
2023-03-21T02:27:54.430Z,30.40
2023-03-21T02:31:51.295Z,32.60
2023-03-21T02:35:56.729Z,31.60
2023-03-21T02:39:55.122Z,31.40
2023-03-21T02:43:56.068Z,30.00
2023-03-21T02:48:00.853Z,31.20
2023-03-21T02:52:13.607Z,29.10
2023-03-21T02:56:12.016Z,33.40
2023-03-21T03:00:18.049Z,26.40
2023-03-21T03:04:09.727Z,29.20
2023-03-21T03:07:57.409Z,29.90
2023-03-21T03:11:43.864Z,30.50
2023-03-21T03:15:31.820Z,24.30
2023-03-21T03:19:18.327Z,27.30
2023-03-21T03:23:04.855Z,24.90
2023-03-21T03:26:51.595Z,20.80
2023-03-21T03:31:00.844Z,24.30
2023-03-21T03:35:02.135Z,23.00
2023-03-21T03:39:03.813Z,24.80
2023-03-21T03:43:00.761Z,26.40
2023-03-21T03:47:05.938Z,21.80
2023-03-21T03:51:03.310Z,24.00
2023-03-21T03:55:15.353Z,24.60
2023-03-21T03:59:02.635Z,23.20
2023-03-21T04:03:08.461Z,21.20
2023-03-21T04:07:03.096Z,18.80
2023-03-21T04:11:05.023Z,21.60
2023-03-21T04:15:10.096Z,21.00
2023-03-21T04:19:13.099Z,19.30
2023-03-21T04:23:10.327Z,20.90
2023-03-21T04:27:12.191Z,21.60
2023-03-21T04:31:24.487Z,22.10
2023-03-21T04:35:25.531Z,20.50
2023-03-21T04:39:15.675Z,21.70
2023-03-21T04:43:04.485Z,32.10
2023-03-21T04:46:51.428Z,25.90
2023-03-21T04:50:48.403Z,26.00
2023-03-21T04:54:43.548Z,39.10
2023-03-21T04:58:42.421Z,31.60
2023-03-21T05:02:39.578Z,59.60
2023-03-21T05:06:40.579Z,60.90
2023-03-21T05:10:37.753Z,61.40
2023-03-21T05:14:38.553Z,56.00
2023-03-21T05:18:36.558Z,41.60
2023-03-21T05:22:34.993Z,39.40
2023-03-21T05:26:22.527Z,47.80
2023-03-21T05:30:25.334Z,46.10
2023-03-21T05:34:21.813Z,46.60
2023-03-21T05:38:22.328Z,52.00
2023-03-21T05:42:25.107Z,52.80
2023-03-21T05:46:22.783Z,56.30
2023-03-21T05:50:22.036Z,60.80
2023-03-21T05:54:35.301Z,122.70
2023-03-21T05:58:36.490Z,62.50
2023-03-21T06:02:25.564Z,39.80
2023-03-21T06:06:15.685Z,38.50
2023-03-21T06:10:09.948Z,36.40
2023-03-21T06:13:58.455Z,37.00
2023-03-21T06:17:46.756Z,34.10
2023-03-21T06:21:33.152Z,35.80
2023-03-21T06:25:19.470Z,32.10
2023-03-21T06:29:11.699Z,31.70
2023-03-21T06:33:05.771Z,29.50
2023-03-21T06:37:02.772Z,33.40
2023-03-21T06:41:05.018Z,30.30
2023-03-21T06:45:04.783Z,33.60
2023-03-21T06:49:05.244Z,37.80
2023-03-21T06:52:59.366Z,33.10
2023-03-21T06:57:04.592Z,34.20
2023-03-21T07:01:04.641Z,28.30
2023-03-21T07:05:07.322Z,29.50
2023-03-21T07:09:03.727Z,45.20
2023-03-21T07:13:06.574Z,28.10
2023-03-21T07:17:09.292Z,28.50
2023-03-21T07:21:13.954Z,35.60
2023-03-21T07:25:10.424Z,26.50
2023-03-21T07:29:15.108Z,30.40
2023-03-21T07:33:14.437Z,27.10
2023-03-21T07:37:16.573Z,28.00
2023-03-21T07:41:11.767Z,29.50
2023-03-21T07:45:10.991Z,27.50
2023-03-21T07:49:07.975Z,26.20
2023-03-21T07:53:11.147Z,26.70
2023-03-21T07:57:07.813Z,26.30
2023-03-21T08:01:08.400Z,26.30
2023-03-21T08:05:04.905Z,26.10
2023-03-21T08:09:05.553Z,24.80
2023-03-21T08:13:06.155Z,26.00
2023-03-21T08:17:07.019Z,25.50
2023-03-21T08:21:06.939Z,24.30
2023-03-21T08:25:08.555Z,25.70
2023-03-21T08:29:06.155Z,24.80
2023-03-21T08:33:04.423Z,20.70
2023-03-21T08:37:09.341Z,21.40
2023-03-21T08:41:10.155Z,24.20
2023-03-21T08:45:06.592Z,23.70
2023-03-21T08:49:07.142Z,24.80
2023-03-21T08:53:10.797Z,25.30
2023-03-21T08:57:09.550Z,28.50
2023-03-21T09:01:03.804Z,32.80
2023-03-21T09:05:06.879Z,29.10
2023-03-21T09:09:03.843Z,30.00
2023-03-21T09:13:00.628Z,29.70
2023-03-21T09:17:01.325Z,31.90
2023-03-21T09:21:03.099Z,27.70
2023-03-21T09:25:01.712Z,30.30
2023-03-21T09:28:57.237Z,30.30
2023-03-21T09:32:57.403Z,30.10
2023-03-21T09:36:54.272Z,30.90
2023-03-21T09:40:57.901Z,28.60
2023-03-21T09:44:54.624Z,33.00
2023-03-21T09:48:57.467Z,29.90
2023-03-21T09:53:01.121Z,31.60
2023-03-21T09:57:05.594Z,30.50
2023-03-21T10:01:02.624Z,32.30
2023-03-21T10:05:04.808Z,27.80
2023-03-21T10:09:01.091Z,33.30
2023-03-21T10:13:01.661Z,29.00
2023-03-21T10:16:59.975Z,24.90
2023-03-21T10:20:57.816Z,27.90
2023-03-21T10:24:52.115Z,32.40
2023-03-21T10:28:56.225Z,29.60
2023-03-21T10:32:48.692Z,32.90
2023-03-21T10:36:35.151Z,30.50
2023-03-21T10:40:21.220Z,28.80
2023-03-21T10:44:07.780Z,30.90
2023-03-21T10:47:53.818Z,30.70
2023-03-21T10:51:40.268Z,32.90
2023-03-21T10:55:33.808Z,40.50
2023-03-21T10:59:26.264Z,36.90
2023-03-21T11:03:18.858Z,33.10
2023-03-21T11:07:19.901Z,40.30
2023-03-21T11:11:18.278Z,40.90
2023-03-21T11:15:20.393Z,36.30
2023-03-21T11:19:17.095Z,37.80
2023-03-21T11:23:15.151Z,44.30
2023-03-21T11:27:09.123Z,39.50
2023-03-21T11:31:13.595Z,40.50
2023-03-21T11:35:00.616Z,40.40
2023-03-21T11:38:47.537Z,34.70
2023-03-21T11:42:44.118Z,36.30
2023-03-21T11:46:44.943Z,40.30
2023-03-21T11:50:43.183Z,42.00
2023-03-21T11:54:41.890Z,43.70
2023-03-21T11:58:38.224Z,38.70
2023-03-21T12:02:39.070Z,39.20
2023-03-21T12:06:36.376Z,35.90
2023-03-21T12:10:36.584Z,34.30
2023-03-21T12:14:44.232Z,37.00
2023-03-21T12:18:42.547Z,34.60
2023-03-21T12:22:44.114Z,34.20
2023-03-21T12:26:41.039Z,30.30
2023-03-21T12:30:43.099Z,29.30
2023-03-21T12:34:42.522Z,32.80
2023-03-21T12:38:42.644Z,27.10
2023-03-21T12:42:39.325Z,29.30
2023-03-21T12:46:42.128Z,23.90
2023-03-21T12:50:37.664Z,26.20
2023-03-21T12:54:37.762Z,25.70
2023-03-21T12:58:34.239Z,28.90
2023-03-21T13:02:34.508Z,27.10
2023-03-21T13:06:31.531Z,25.10
2023-03-21T13:10:31.724Z,24.70
2023-03-21T13:14:33.329Z,27.30
2023-03-21T13:18:33.762Z,24.50
2023-03-21T13:22:30.640Z,27.30
2023-03-21T13:26:28.743Z,23.00
2023-03-21T13:30:24.891Z,24.70
2023-03-21T13:34:26.519Z,24.30
2023-03-21T13:38:25.470Z,24.90
2023-03-21T13:42:25.276Z,25.30
2023-03-21T13:46:22.380Z,26.80
2023-03-21T13:50:23.499Z,24.70
2023-03-21T13:54:20.521Z,24.00
2023-03-21T13:58:21.025Z,27.50
2023-03-21T14:02:17.380Z,26.00
2023-03-21T14:06:18.509Z,26.10
2023-03-21T14:10:15.260Z,27.10
2023-03-21T14:14:16.046Z,29.70
2023-03-21T14:18:21.623Z,28.10
2023-03-21T14:22:32.997Z,35.10
2023-03-21T14:26:29.631Z,25.90
2023-03-21T14:30:31.120Z,24.50
2023-03-21T14:34:28.849Z,23.90
2023-03-21T14:38:32.854Z,23.90
2023-03-21T14:42:29.405Z,23.50
2023-03-21T14:46:35.363Z,22.70
2023-03-21T14:50:32.837Z,24.30
2023-03-21T14:54:32.937Z,25.00
2023-03-21T14:58:29.479Z,22.10
2023-03-21T15:02:30.586Z,21.90
2023-03-21T15:06:27.878Z,23.10
2023-03-21T15:10:28.535Z,23.80
2023-03-21T15:14:28.603Z,22.20
2023-03-21T15:18:29.385Z,24.10
2023-03-21T15:22:25.763Z,23.30
2023-03-21T15:26:26.200Z,23.40
2023-03-21T15:30:21.044Z,24.80
2023-03-21T15:34:22.566Z,23.50
2023-03-21T15:38:25.567Z,24.40
2023-03-21T15:42:31.597Z,22.80
2023-03-21T15:46:24.451Z,23.90
2023-03-21T15:50:11.003Z,27.80
2023-03-21T15:53:58.971Z,24.90
2023-03-21T15:57:45.405Z,27.30
2023-03-21T16:01:32.103Z,26.10
2023-03-21T16:05:19.790Z,24.40
2023-03-21T16:09:07.565Z,29.20
2023-03-21T16:12:55.409Z,34.80
2023-03-21T16:16:43.092Z,43.00
2023-03-21T16:20:31.526Z,84.20
2023-03-21T16:24:19.322Z,113.40
2023-03-21T16:28:09.447Z,102.90
2023-03-21T16:31:57.553Z,64.40
2023-03-21T16:35:44.243Z,46.10
2023-03-21T16:39:34.952Z,47.80
2023-03-21T16:43:21.356Z,45.70
2023-03-21T16:47:07.256Z,42.70
2023-03-21T16:51:01.924Z,38.00
2023-03-21T16:55:02.272Z,38.80
2023-03-21T16:58:59.641Z,41.80
2023-03-21T17:03:00.264Z,57.70
2023-03-21T17:06:57.808Z,48.50
2023-03-21T17:10:58.081Z,60.10
2023-03-21T17:14:59.572Z,109.90
2023-03-21T17:18:56.781Z,79.00
2023-03-21T17:22:57.132Z,82.90
2023-03-21T17:26:49.271Z,56.20
2023-03-21T17:30:35.609Z,48.40
2023-03-21T17:34:21.635Z,47.20
2023-03-21T17:38:19.344Z,41.70
2023-03-21T17:42:13.740Z,51.80
2023-03-21T17:46:15.050Z,61.80
2023-03-21T17:50:13.124Z,70.40
2023-03-21T17:54:13.993Z,60.90
2023-03-21T17:58:12.030Z,64.70
2023-03-21T18:02:13.926Z,115.80
2023-03-21T18:06:10.810Z,84.20
2023-03-21T18:10:10.868Z,75.30
2023-03-21T18:14:15.949Z,64.50
2023-03-21T18:18:06.919Z,50.50
2023-03-21T18:21:52.899Z,91.30
2023-03-21T18:25:39.872Z,64.40
2023-03-21T18:30:22.122Z,73.00
2023-03-21T18:34:02.181Z,60.90
2023-03-21T18:37:59.897Z,80.90
2023-03-21T18:41:58.010Z,80.30
2023-03-21T18:45:58.544Z,88.00
2023-03-21T18:50:13.254Z,85.80
2023-03-21T18:54:16.430Z,92.50
2023-03-21T18:58:12.838Z,84.50
2023-03-21T19:02:14.115Z,74.30
2023-03-21T19:06:14.902Z,100.20
2023-03-21T19:10:18.943Z,64.60
2023-03-21T19:14:15.928Z,59.50
2023-03-21T19:22:34.019Z,41.70
2023-03-21T19:26:34.148Z,39.60
2023-03-21T19:30:30.498Z,38.10
2023-03-21T19:34:31.143Z,42.40
2023-03-21T19:38:31.328Z,39.30
2023-03-21T19:42:36.802Z,40.90
2023-03-21T19:46:39.887Z,39.00
2023-03-21T19:51:03.282Z,41.90
2023-03-21T19:55:03.464Z,38.90
2023-03-21T19:59:10.647Z,50.20
2023-03-21T20:03:13.185Z,47.20
2023-03-21T20:07:11.817Z,48.50
2023-03-21T20:11:13.928Z,44.20
2023-03-21T20:15:19.266Z,80.20
2023-03-21T20:19:25.475Z,128.60
2023-03-21T20:23:24.862Z,72.70
2023-03-21T20:27:29.866Z,46.10
2023-03-21T20:35:19.272Z,52.40
2023-03-21T20:39:29.802Z,52.70
2023-03-21T20:44:17.511Z,50.00
2023-03-21T20:47:53.054Z,41.10
2023-03-21T20:56:16.147Z,46.60
2023-03-21T21:00:18.450Z,41.10
2023-03-21T21:04:20.138Z,45.20
2023-03-21T21:08:23.107Z,89.30
2023-03-21T21:12:23.098Z,62.30
2023-03-21T21:16:25.672Z,63.40
2023-03-21T21:20:29.132Z,57.20
2023-03-21T21:24:27.496Z,48.90
2023-03-21T21:28:26.040Z,60.90
2023-03-21T21:32:26.694Z,58.70
2023-03-21T21:36:29.662Z,51.30
2023-03-21T21:40:29.151Z,44.50
2023-03-21T21:44:32.116Z,48.10
2023-03-21T21:48:32.054Z,44.30
2023-03-21T21:52:35.080Z,48.60
2023-03-21T21:56:30.228Z,48.80
2023-03-21T22:00:28.417Z,49.20
2023-03-21T22:04:29.918Z,51.60
2023-03-21T22:08:32.018Z,44.90
2023-03-21T22:12:31.161Z,55.40
2023-03-21T22:16:34.555Z,60.60
2023-03-21T22:20:37.818Z,68.80
2023-03-21T22:24:44.055Z,71.10
2023-03-21T22:28:43.304Z,68.20
2023-03-21T22:32:43.253Z,66.60
2023-03-21T22:36:47.964Z,77.00
2023-03-21T22:40:48.396Z,63.90
2023-03-21T22:44:51.330Z,56.10
2023-03-21T22:48:48.374Z,40.40
2023-03-21T22:52:38.083Z,61.50
2023-03-21T22:56:30.414Z,57.90
2023-03-21T23:00:18.300Z,55.00
2023-03-21T23:04:04.774Z,59.30
2023-03-21T23:07:51.217Z,58.10
2023-03-21T23:11:44.733Z,56.30
2023-03-21T23:15:46.384Z,52.50
2023-03-21T23:19:46.509Z,50.50
2023-03-21T23:23:52.947Z,53.40
2023-03-21T23:27:52.429Z,53.70
2023-03-21T23:31:54.795Z,55.30
2023-03-21T23:35:45.397Z,59.70
2023-03-21T23:39:32.281Z,55.70
2023-03-21T23:43:18.962Z,56.10
2023-03-21T23:47:11.237Z,57.40
2023-03-21T23:51:10.726Z,54.40
2023-03-21T23:55:13.398Z,55.20
2023-03-21T23:59:13.428Z,42.40
